Latest Weather Observations for Batchelor

IDD60901

Issued at 11:01 pm CST Wednesday 4 May 2016 (issued every 10 minutes, with the page automatically refreshed every 10 minutes)

About weather observations | Map of Darwin area stations | Latest observations for Darwin area | Other Formats
Station Details ID: 014272 Name: BATCHELOR AIRPORT Lat: -13.05 Lon: 131.03 Height: 104.0 m
Data from the previous 72 hours. | See also: Recent months at Batchelor
Date/Time
CST
Tmp

°C
App
Tmp
°C
Dew
Point
°C
Rel
Hum
%
Delta-T

°C
Wind Press
QNH
hPa
Press
MSL
hPa
Rain
since
9 am
mm
Dir
 
Spd
km/h
Gust
km/h
Spd
kts
Gust
kts
04/11:00pm 24.6 29.5 22.3 87 1.5 CALM 0 0 0 0 1013.0 1012.4 0.0
04/10:30pm 24.4 28.9 22.3 88 1.4 WNW 2 4 1 2 1013.3 1012.7 0.0
04/10:00pm 24.6 29.4 22.1 86 1.7 CALM 0 0 0 0 1013.1 1012.5 0.0
04/09:30pm 24.7 29.5 22.2 86 1.7 CALM 0 2 0 1 1013.0 1012.4 0.0
04/09:00pm 24.8 28.9 22.3 86 1.7 WNW 4 6 2 3 1012.6 1012.1 0.0
04/08:30pm 25.1 30.0 22.4 85 1.8 CALM 0 0 0 0 1012.2 1011.7 0.0
04/08:00pm 25.3 30.1 22.2 83 2.1 CALM 0 2 0 1 1012.0 1011.5 0.0
04/07:30pm 25.3 29.3 22.0 82 2.2 WNW 4 4 2 2 1011.3 1010.8 0.0
04/07:00pm 25.7 29.6 21.8 79 2.6 WNW 4 6 2 3 1010.8 1010.3 0.0
04/06:30pm 26.1 29.4 21.5 76 3.1 WNW 6 7 3 4 1010.5 1009.9 0.0
04/06:00pm 26.9 30.3 21.6 72 3.6 NW 6 11 3 6 1010.1 1009.5 0.0
04/05:30pm 27.4 29.7 21.4 70 4.0 NNW 11 15 6 8 1010.0 1009.4 0.0
04/05:00pm 27.8 30.5 21.3 67 4.3 NNW 9 17 5 9 1009.5 1008.9 0.0
04/04:30pm 28.6 31.6 22.6 70 4.1 NW 11 17 6 9 1009.5 1008.9 0.0
04/04:00pm 29.9 32.6 22.1 63 5.3 NNW 11 19 6 10 1009.3 1008.7 0.0
04/03:30pm 31.6 32.9 21.7 55 6.7 N 17 26 9 14 1009.1 1008.5 0.0
04/03:00pm 34.6 36.5 21.3 46 9.1 ENE 13 20 7 11 1009.2 1008.6 0.0
04/02:30pm 33.7 36.5 21.5 49 8.3 E 9 20 5 11 1009.3 1008.7 0.0
04/02:00pm 32.6 34.6 21.5 52 7.5 ESE 13 20 7 11 1009.8 1009.2 0.0
04/01:30pm 33.0 35.0 21.5 50 7.8 E 13 17 7 9 1010.3 1009.7 0.0
04/01:00pm 32.8 35.8 22.0 53 7.4 ENE 9 17 5 9 1010.7 1010.1 0.0
04/12:30pm 31.9 34.0 21.7 54 6.9 E 13 20 7 11 1011.4 1010.9 0.0
04/12:00pm 31.9 34.8 23.2 60 6.0 E 13 20 7 11 1011.8 1011.3 0.0
04/11:30am 31.6 34.8 23.7 63 5.5 E 13 20 7 11 1012.5 1012.0 0.0
04/11:00am 30.9 34.0 24.1 67 4.7 E 15 20 8 11 1013.1 1012.5 0.0
04/10:30am 29.6 32.3 23.5 69 4.2 ENE 15 22 8 12 1013.6 1013.0 0.0
04/10:00am 29.1 32.6 23.5 72 3.9 ENE 11 15 6 8 1013.7 1013.1 0.0
04/09:30am 28.2 33.0 24.2 79 2.8 ESE 6 11 3 6 1013.5 1012.9 0.0
04/09:00am 26.5 31.1 23.8 85 1.9 ESE 6 7 3 4 1013.5 1012.9 11.2
04/08:30am 26.3 31.0 23.4 84 2.0 SE 4 6 2 3 1013.4 1012.8 11.2
04/08:00am 25.3 30.5 23.5 90 1.2 SE 2 4 1 2 1013.2 1012.6 11.2
04/07:30am 24.4 29.1 23.4 94 0.7 SE 4 6 2 3 1012.6 1012.1 11.2
04/07:00am 24.0 28.9 23.0 94 0.7 SE 2 4 1 2 1012.2 1011.7 11.2
04/06:30am 23.9 29.1 22.9 94 0.7 CALM 0 0 0 0 1012.0 1011.5 11.2
04/06:00am 24.0 28.9 23.0 94 0.7 SE 2 4 1 2 1011.6 1011.1 11.2
04/05:30am 24.1 29.0 23.1 94 0.7 SE 2 4 1 2 1011.3 1010.8 11.2
04/05:00am 24.1 29.4 23.1 94 0.7 CALM 0 0 0 0 1011.2 1010.7 11.2
04/04:30am 24.1 29.4 23.1 94 0.7 CALM 0 0 0 0 1011.1 1010.6 11.2
04/04:00am 24.0 29.3 23.0 94 0.7 CALM 0 0 0 0 1011.3 1010.8 11.2
04/03:30am 24.0 29.3 23.0 94 0.7 CALM 0 0 0 0 1011.6 1011.1 11.2
04/03:00am 24.2 29.5 23.0 93 0.8 CALM 0 0 0 0 1011.6 1011.1 11.2
04/02:30am 24.3 29.4 23.3 94 0.7 SE 2 4 1 2 1011.8 1011.3 11.2
04/02:00am 24.5 29.6 23.3 93 0.8 SE 2 2 1 1 1012.1 1011.6 11.2
04/01:30am 24.7 30.4 23.7 94 0.7 CALM 0 0 0 0 1012.2 1011.7 11.2
04/01:00am 24.5 30.1 23.6 95 0.6 CALM 0 0 0 0 1012.4 1011.9 11.2
04/12:30am 24.6 30.2 23.6 94 0.7 CALM 0 0 0 0 1012.4 1011.9 11.2
04/12:00am 24.6 30.3 23.7 95 0.6 CALM 0 0 0 0 1012.6 1012.1 11.2
 
Date/Time
CST
Tmp

°C
App
Tmp
°C
Dew
Point
°C
Rel
Hum
%
Delta-T

°C
Wind Press
QNH
hPa
Press
MSL
hPa
Rain
since
9 am
mm
Dir
 
Spd
km/h
Gust
km/h
Spd
kts
Gust
kts
03/11:30pm 24.8 30.5 23.8 94 0.7 CALM 0 0 0 0 1012.4 1011.9 11.2
03/11:00pm 24.7 30.4 23.7 94 0.7 CALM 0 2 0 1 1012.6 1012.1 11.2
03/10:30pm 24.7 30.4 23.7 94 0.7 CALM 0 4 0 2 1012.8 1012.2 11.2
03/10:00pm 24.9 30.3 23.9 94 0.7 SE 2 4 1 2 1013.0 1012.4 11.2
03/09:30pm 24.9 30.3 23.9 94 0.7 SE 2 4 1 2 1013.2 1012.6 11.2
03/09:00pm 24.9 30.6 23.7 93 0.8 CALM 0 0 0 0 1013.1 1012.5 11.2
03/08:30pm 25.0 30.2 23.6 92 1.0 SE 2 4 1 2 1012.3 1011.8 11.2
03/08:00pm 24.8 29.4 23.2 91 1.1 SE 4 4 2 2 1011.9 1011.4 11.2
03/07:30pm 24.9 29.7 23.5 92 1.0 SE 4 4 2 2 1011.2 1010.7 11.2
03/07:00pm 24.8 29.7 23.6 93 0.8 SE 4 4 2 2 1010.8 1010.3 11.2
03/06:30pm 24.7 30.3 23.5 93 0.8 CALM 0 0 0 0 1010.7 1010.1 11.2
03/06:00pm 24.6 29.9 23.0 91 1.1 CALM 0 0 0 0 1010.4 1009.8 11.2
03/05:30pm 24.5 28.9 22.8 90 1.2 SE 4 7 2 4 1009.7 1009.1 11.2
03/05:00pm 24.5 28.1 22.4 88 1.4 NNE 7 9 4 5 1009.3 1008.7 11.2
03/04:30pm 23.9 27.6 22.2 90 1.1 ENE 6 9 3 5 1009.9 1009.3 11.0
03/04:00pm 24.5 24.3 21.2 82 2.2 NE 24 37 13 20 1010.4 1009.8 2.8
03/03:30pm 28.3 30.3 23.0 73 3.6 N 17 30 9 16 1010.3 1009.7 0.0
03/03:15pm 28.5 28.9 21.8 67 4.5 N 22 35 12 19 1010.0 1009.4 0.0
03/03:00pm 33.6 35.7 21.7 49 8.1 E 13 20 7 11 1009.4 1008.8 0.0
03/02:30pm 33.5 35.9 22.3 52 7.7 ENE 13 20 7 11 1009.4 1008.8 0.0
03/02:00pm 32.2 34.8 22.0 55 7.0 NE 11 17 6 9 1009.9 1009.3 0.0
03/01:30pm 33.0 36.0 22.7 54 7.1 E 11 19 6 10 1010.3 1009.7 0.0
03/01:00pm 31.5 34.0 22.5 59 6.2 E 13 19 7 10 1011.2 1010.7 0.0
03/12:30pm 32.3 36.0 23.3 59 6.2 ENE 9 24 5 13 1011.6 1011.1 0.0
03/12:00pm 31.1 34.3 23.0 62 5.6 NNE 11 17 6 9 1012.2 1011.7 0.0
03/11:30am 31.2 34.2 23.3 63 5.5 ENE 13 19 7 10 1012.6 1012.1 0.0
03/11:00am 30.4 33.9 23.6 67 4.7 ENE 11 19 6 10 1013.2 1012.6 0.0
03/10:30am 29.9 34.3 24.5 73 3.8 E 9 17 5 9 1013.7 1013.1 0.0
03/10:00am 28.5 32.8 23.6 75 3.4 E 7 13 4 7 1013.6 1013.0 0.0
03/09:30am 27.6 31.4 23.4 78 2.9 E 9 11 5 6 1013.5 1012.9 0.0
03/09:00am 26.4 29.9 22.9 81 2.4 ESE 9 13 5 7 1013.3 1012.7 15.8
03/08:30am 24.9 27.9 22.0 84 1.9 ESE 9 13 5 7 1012.9 1012.3 15.8
03/08:00am 24.9 28.4 22.8 88 1.4 ESE 9 11 5 6 1012.5 1012.0 15.8
03/07:30am 23.8 27.4 22.1 90 1.1 E 6 7 3 4 1012.5 1012.0 15.8
03/07:00am 23.5 27.0 21.8 90 1.1 E 6 9 3 5 1012.1 1011.6 15.8
03/06:30am 23.3 26.8 21.9 92 0.9 ESE 6 7 3 4 1011.8 1011.3 15.8
03/06:00am 23.5 27.0 22.1 92 0.9 E 7 9 4 5 1011.4 1010.9 15.8
03/05:30am 23.5 26.7 22.3 93 0.8 E 9 11 5 6 1011.2 1010.7 15.8
03/05:00am 23.5 26.7 22.3 93 0.8 SE 9 13 5 7 1011.2 1010.7 15.8
03/04:30am 23.3 27.0 22.3 94 0.7 E 6 7 3 4 1010.9 1010.4 15.8
03/04:00am 23.2 26.9 22.2 94 0.7 E 6 7 3 4 1010.9 1010.4 15.8
03/03:30am 23.1 27.2 22.3 95 0.5 ESE 4 6 2 3 1010.9 1010.4 15.8
03/03:00am 23.0 27.1 22.2 95 0.5 SE 4 7 2 4 1011.1 1010.6 15.8
03/02:30am 23.0 27.1 22.3 96 0.5 N 4 6 2 3 1011.3 1010.8 15.8
03/02:00am 23.0 27.1 22.2 95 0.5 E 4 7 2 4 1011.5 1011.0 15.8
03/01:30am 22.9 26.4 22.1 95 0.5 E 7 9 4 5 1012.1 1011.6 15.8
03/01:00am 22.8 26.8 22.1 96 0.5 SE 4 7 2 4 1012.9 1012.3 15.8
03/12:30am 22.6 26.4 21.6 94 0.7 S 4 6 2 3 1013.1 1012.5 15.4
03/12:00am 22.9 23.8 21.9 94 0.7 ESE 20 33 11 18 1014.7 1014.1 5.4
 
Date/Time
CST
Tmp

°C
App
Tmp
°C
Dew
Point
°C
Rel
Hum
%
Delta-T

°C
Wind Press
QNH
hPa
Press
MSL
hPa
Rain
since
9 am
mm
Dir
 
Spd
km/h
Gust
km/h
Spd
kts
Gust
kts
02/11:30pm 26.2 28.8 22.7 81 2.4 E 13 33 7 18 1014.2 1013.6 0.0
02/11:00pm 26.4 30.7 22.7 80 2.5 E 4 6 2 3 1013.4 1012.8 0.0
02/10:30pm 26.3 29.9 22.4 79 2.6 ENE 7 9 4 5 1013.3 1012.7 0.0
02/10:00pm 26.1 30.2 22.2 79 2.6 ESE 4 6 2 3 1013.3 1012.7 0.0
02/09:30pm 26.2 30.6 22.1 78 2.8 ESE 2 6 1 3 1013.6 1013.0 0.0
02/09:00pm 26.1 30.9 22.2 79 2.6 CALM 0 0 0 0 1013.4 1012.8 0.0
02/08:30pm 26.6 31.2 21.8 75 3.2 CALM 0 0 0 0 1013.1 1012.5 0.0
02/08:00pm 26.9 30.2 21.4 72 3.7 E 6 9 3 5 1012.8 1012.2 0.0
02/07:30pm 27.4 32.2 22.1 73 3.6 CALM 0 0 0 0 1012.1 1011.6 0.0
02/07:00pm 28.1 31.4 21.4 67 4.5 N 6 7 3 4 1011.5 1011.0 0.0
02/06:30pm 29.1 32.7 23.1 70 4.1 N 9 15 5 8 1011.1 1010.6 0.0
02/06:00pm 29.6 32.7 22.8 67 4.7 N 11 17 6 9 1010.6 1010.0 0.0
02/05:30pm 30.3 32.9 22.7 64 5.2 N 13 17 7 9 1010.2 1009.6 0.0
02/05:00pm 31.1 34.5 22.7 61 5.8 N 9 17 5 9 1009.8 1009.2 0.0
02/04:30pm 31.7 34.3 22.7 59 6.2 N 13 20 7 11 1009.2 1008.6 0.0
02/04:00pm 32.0 35.6 23.0 59 6.2 NNE 9 17 5 9 1009.3 1008.7 0.0
02/03:30pm 32.5 36.7 23.2 58 6.5 NNE 6 11 3 6 1009.5 1008.9 0.0
02/03:00pm 31.7 34.4 22.1 56 6.6 NE 11 17 6 9 1009.8 1009.2 0.0
02/02:30pm 32.4 36.2 23.4 59 6.3 NE 9 15 5 8 1010.1 1009.5 0.0
02/02:00pm 31.4 34.3 22.4 59 6.2 NNE 11 17 6 9 1010.5 1009.9 0.0
02/01:30pm 31.6 33.6 22.3 57 6.4 NE 15 24 8 13 1011.0 1010.5 0.0
02/01:00pm 32.0 35.4 23.3 60 6.0 ENE 11 17 6 9 1011.1 1010.6 0.0
02/12:30pm 31.3 34.6 22.6 60 6.0 NE 9 19 5 10 1011.5 1011.0 0.0
02/12:00pm 30.7 34.2 23.6 66 4.9 ENE 11 20 6 11 1012.0 1011.5 0.0
02/11:30am 30.0 33.8 23.4 67 4.6 E 9 13 5 7 1012.4 1011.9 0.0
02/11:00am 29.6 33.3 23.3 69 4.3 E 9 15 5 8 1013.0 1012.4 0.0
02/10:30am 29.6 33.1 23.5 69 4.2 E 11 17 6 9 1013.0 1012.4 0.0
02/10:00am 29.3 33.1 23.5 71 4.0 E 9 15 5 8 1013.0 1012.4 0.0
02/09:30am 28.7 32.2 23.6 74 3.5 E 11 15 6 8 1012.6 1012.1 0.0
02/09:00am 27.9 32.0 23.9 79 2.8 E 9 13 5 7 1012.3 1011.8 8.6
02/08:30am 26.8 31.6 24.1 85 1.9 ENE 6 7 3 4 1012.2 1011.7 8.6
02/08:00am 25.5 31.2 23.7 90 1.2 CALM 0 0 0 0 1012.1 1011.6 8.6
02/07:30am 24.8 29.7 23.6 93 0.8 E 4 6 2 3 1011.8 1011.3 8.6
02/07:00am 24.2 29.5 23.0 93 0.8 CALM 0 0 0 0 1011.8 1011.3 8.6
02/06:30am 24.2 29.5 23.0 93 0.8 CALM 0 0 0 0 1011.3 1010.8 8.6
02/06:00am 24.4 29.7 23.0 92 0.9 CALM 0 0 0 0 1011.2 1010.7 8.6
02/05:30am 24.5 29.9 23.3 93 0.8 CALM 0 4 0 2 1010.6 1010.0 8.6
02/05:00am 24.6 29.6 23.2 92 1.0 E 2 4 1 2 1010.4 1009.8 8.6
02/04:30am 24.6 29.1 23.0 91 1.1 E 4 6 2 3 1010.2 1009.6 8.6
02/04:00am 24.6 29.1 23.0 91 1.1 ESE 4 6 2 3 1010.2 1009.6 8.6
02/03:30am 24.6 29.1 23.0 91 1.1 ESE 4 6 2 3 1010.2 1009.6 8.6
02/03:00am 24.5 29.0 22.9 91 1.1 ESE 4 6 2 3 1010.1 1009.5 8.6
02/02:30am 24.7 28.9 23.1 91 1.1 ESE 6 6 3 3 1009.9 1009.3 8.6
02/02:00am 24.9 29.2 23.3 91 1.1 E 6 7 3 4 1010.4 1009.8 8.6
02/01:30am 24.8 29.8 23.8 94 0.7 SSE 4 6 2 3 1011.1 1010.6 8.6
02/01:00am 25.0 30.8 24.0 94 0.7 CALM 0 0 0 0 1011.6 1011.1 8.6
02/12:30am 25.0 30.8 24.0 94 0.7 CALM 0 0 0 0 1012.0 1011.5 8.6
02/12:00am 25.0 30.8 24.0 94 0.7 CALM 0 0 0 0 1012.1 1011.6 8.6
 
Date/Time
CST
Tmp

°C
App
Tmp
°C
Dew
Point
°C
Rel
Hum
%
Delta-T

°C
Wind Press
QNH
hPa
Press
MSL
hPa
Rain
since
9 am
mm
Dir
 
Spd
km/h
Gust
km/h
Spd
kts
Gust
kts
01/11:30pm 24.8 30.2 23.8 94 0.7 SSE 2 4 1 2 1012.2 1011.7 8.6

Latest Capital City Observations: Canberra | Sydney | Melbourne | Brisbane | Adelaide | Perth | Hobart | Darwin

Other Formats:

Comma delimited format used in spreadsheet applications
http://www.bom.gov.au/fwo/IDD60901/IDD60901.94125.axf

JavaScript Object Notation format (JSON) in row-major order
http://www.bom.gov.au/fwo/IDD60901/IDD60901.94125.json